Matched Transactions 

topic0
0x1c411e9a96e071241c2f21f7726b17ae89e3cab4c78be50e062b03a9fffbbad1

A total of 426 transactions found

Txn Hash Method
Block
From
To
Value [Txn Fee]
0x55546f41ed70b89b69cd6bf0b234b8b6ce9f18196b47bd2e4884ec54195c7264Add Liquidity ET...74409832021-05-15 21:00:31159 days 2 hrs agoSpaceMoon: Deployer PancakeSwap: Router v21 BNB0.00166113
0x9d7de552161909ab15a8f1ea277d8a2a14185624445cc44dfa1846d1aa17c9dfSwap Exact ETH F...74413542021-05-15 21:19:04159 days 1 hr ago0xb793d031140cb1535ea14e36ab511b828c5f83c5 PancakeSwap: Router v20.004 BNB0.00134943
0xbb8910f2a554bec885eb08d0a8cfa804c0923ddddc5c02124bba2c6d0f172bdfAdd Liquidity ET...74451742021-05-16 0:31:59158 days 22 hrs agoSpaceMoon: Deployer PancakeSwap: Router v20.317709425 BNB0.00135907
0x0310cf896dc39f7378f9fee6279d274e6d846d6e2302e76769b8c768b32ce365Swap Exact ETH F...74559872021-05-16 9:38:01158 days 13 hrs ago0x1820fdb15e2d50af2e943dc58ac6e370f9f09137 PancakeSwap: Router v20.000001 BNB0.00104931
0x3efd0ee6abb7c433051b9e40f60505039c94eca4fd5514091153efd5d3973bc0Swap Exact ETH F...74658802021-05-16 18:03:01158 days 5 hrs ago0x24d02cab9d2ed3bd662c26365535470c669806a8 PancakeSwap: Router v20.02 BNB0.00104937
0xf278324f07ac6cce5946f824beb1607dca1477f77f0afa1ccbb5cdcc5c42db41Swap Exact ETH F...74659252021-05-16 18:05:38158 days 5 hrs ago0x24d02cab9d2ed3bd662c26365535470c669806a8 PancakeSwap: Router v20.15 BNB0.00097449
0xfbc4878114b291302a474b743dc3c2d2e15fb3731bf35f20d40d9e725cdbe395Swap Exact Token...74659832021-05-16 18:08:43158 days 5 hrs ago0x24d02cab9d2ed3bd662c26365535470c669806a8 PancakeSwap: Router v20 BNB0.00111706
0x9215a5b1831106362bdf450493a07d1ba0353f96d0f6a3a0e1418a58d9498bf9Swap Exact Token...74661382021-05-16 18:16:28158 days 5 hrs ago0xff5fcec3ee94bc145f0b5f852a29f3ba88f790c7 PancakeSwap: Router v20 BNB0.00134808
0x25d9159a572a32dfd5412b946fa04feef4c31766cd8fc904c0d27ff2c5172d3bSwap Exact ETH F...74662852021-05-16 18:23:49158 days 4 hrs ago0x6d57d0b05b2d28f1e17cca85eb30b528969ee141 PancakeSwap: Router v20.02 BNB0.00104943
0xa3b8be1b3a3fedc6085222dad052dbc23c1e058739db05b3679b1896642cf669Swap Tokens For ...74663772021-05-16 18:28:25158 days 4 hrs ago0xc385b29687dbb285d1e9761b4ed94a933da4f89c PancakeSwap: Router v20 BNB0.00169058
0x3fc49231cdc3364ce7f688f88a5b0b0924eb31afad162b13a0cd3740c7585958Swap Tokens For ...74664312021-05-16 18:31:07158 days 4 hrs ago0xc385b29687dbb285d1e9761b4ed94a933da4f89c PancakeSwap: Router v20 BNB0.00160072
0x5df41a8a9cf4f82ef06a6e52a1fedef7095f40f8674221620c243d5872f4a64eSwap Tokens For ...74664532021-05-16 18:32:13158 days 4 hrs ago0xc385b29687dbb285d1e9761b4ed94a933da4f89c PancakeSwap: Router v20 BNB0.00152822
0x88dc184ac31e6457266cce947c04428e1f4397b51c61fdcb7436c2f3dd7202e6Swap Tokens For ...74664962021-05-16 18:34:22158 days 4 hrs ago0xc385b29687dbb285d1e9761b4ed94a933da4f89c PancakeSwap: Router v20 BNB0.00202697
0xe3ddf2f05f6898b4703bdfaa4a1c8e358b65ea5b0425c57f7b0148ed0dcf9674Swap Exact ETH F...74666062021-05-16 18:39:54158 days 4 hrs ago0x7de2367f38cd76f115edccb91f72b844aa6aac25 PancakeSwap: Router v20.00001 BNB0.00104937
0xfa15d720ee0dd55b06535daa7e12e9ffe067ad5e16ad96ecdcc4706374636c10Swap Exact ETH F...74666322021-05-16 18:41:12158 days 4 hrs ago0x7de2367f38cd76f115edccb91f72b844aa6aac25 PancakeSwap: Router v20.1 BNB0.00097443
0x190e413c156b70e1e6c0450167c8862d561240677c1ce3a183efd2c05895d524Add Liquidity ET...74669062021-05-16 18:54:54158 days 4 hrs agoSpaceMoon: Deployer PancakeSwap: Router v20.5 BNB0.00130071
0xc650e00c177b7570c2aa1af54a34e414ecab2fe4b37b7931f10cc4da261c0f6aSwap Exact ETH F...74670902021-05-16 19:04:06158 days 4 hrs agoSpaceMoon: Deployer PancakeSwap: Router v20.1 BNB0.00097659
0x95f31c8018cb71fa7bba92d36c874c5ca0fa89ff25da48be3b5d7f6ec31e5db8Swap Exact Token...74670952021-05-16 19:04:21158 days 4 hrs ago0x6d57d0b05b2d28f1e17cca85eb30b528969ee141 PancakeSwap: Router v20 BNB0.001117
0xdda6c0eb07375b90bee4159fe524bb9e680d0107f3d0e10687fa15cb9f3426faSwap Exact ETH F...74678142021-05-16 19:40:22158 days 3 hrs ago0x6518eb74365dcdd23c09aa8f976b7fdc3d08fbf3 PancakeSwap: Router v20.1 BNB0.00097659
0x4b39d13f62ee2bf2b023350b86190d1fff232dc8a69112e6b1f40ca9d797ca17Swap Exact ETH F...74678582021-05-16 19:42:34158 days 3 hrs ago0x6518eb74365dcdd23c09aa8f976b7fdc3d08fbf3 PancakeSwap: Router v20.1 BNB0.00097659
0xfd52cb6f2277aa0d73a7e8aed129e1c9bc50db88efce4520b4d78736640a0694Swap Exact ETH F...74681392021-05-16 19:56:41158 days 3 hrs ago0x6518eb74365dcdd23c09aa8f976b7fdc3d08fbf3 PancakeSwap: Router v20.14 BNB0.00097659
0x8161381cce8565b72cc08c8502a1990f66886ae5ecc72fc6e1df7fcd4017ec7cSwap Exact Token...74681992021-05-16 19:59:41158 days 3 hrs ago0x24d02cab9d2ed3bd662c26365535470c669806a8 PancakeSwap: Router v20 BNB0.00111706
0x36b20d5cfa72361a896cd6a54c6a7946c4cfcbd68b2ceea50ec98f7e233e41d3Swap Exact ETH F...74690982021-05-16 20:44:38158 days 2 hrs ago0x6518eb74365dcdd23c09aa8f976b7fdc3d08fbf3 PancakeSwap: Router v20.1 BNB0.00097659
0x49a2d948d5478cbd1fa2d26ee924c52dc0d2e8fa7696dfc3c962c2ffe4c2a7b5Swap Exact ETH F...74702002021-05-16 21:39:44158 days 1 hr ago0x31a56ca07dbbf9e81b565fbcc681f9d60e726ad4 PancakeSwap: Router v20.019642267911615 BNB0.00104943
0x85e0d861dc232246d263f66293bc51a90f580fbf82c70e81d4700ce31aaf597aSwap Exact ETH F...74707562021-05-16 22:07:33158 days 1 hr ago0xaaf974ade62e39b3f75f4ed26fc40286159c7c13 PancakeSwap: Router v20.3 BNB0.00104943
0x3cbd94b8672a62f355998042df5d1edb8225222d02625f0254664ec0f5b14b1fSwap Exact ETH F...74707902021-05-16 22:09:15158 days 1 hr ago0x2baa73bc3f80f9035bc88db3ff9458ab19962c1f PancakeSwap: Router v20.136108360381611 BNB0.00104943
0x111a49e47f14e4aedd615b893cb29fed403a96174cb945c6d65e59cfbf524426Swap Exact ETH F...74708002021-05-16 22:09:45158 days 1 hr ago0xa7eac0ecc3505f2b32bf46d0ee87a998ef35996d PancakeSwap: Router v20.008 BNB0.00104943
0x24c35d0cd3e49adb7c8f128a14d16c47a0ec06b1a65fbe672b9c4547a01e2112Swap Exact ETH F...74708002021-05-16 22:09:45158 days 1 hr ago0xb7f9de4df60a37b97495c7e94d0efefec8760034 PancakeSwap: Router v20.024 BNB0.00098895
0x9f0e85bfd92054f7a5a740f14f2103d72840d9fdc48bac870087789a8be23299Swap Exact ETH F...74708302021-05-16 22:11:15158 days 1 hr ago0x453d358c8a53c111d4e6829e264ded7715c7f61c PancakeSwap: Router v20.02 BNB0.00104943
0xed34ff5b0b2f719391484fe242d9dfd658149e6a2fc5abc3f1727350a34b55faSwap Exact ETH F...74708362021-05-16 22:11:33158 days 1 hr ago0x69d9550727908a4511b4951c7dc7766f9167e9df PancakeSwap: Router v20.01 BNB0.00104943
0x574847f3ac3b215949631685f8729456cf50a1662cfddec9de6051389372a56aSwap Exact ETH F...74708432021-05-16 22:11:54158 days 1 hr ago0xaad2056ddc984af58f83ef636652232c2e199f90 PancakeSwap: Router v20.003 BNB0.00104943
0xeeb809e06560779b6c445d977cc4dadc37c2d3d561d8efd7c0f37da723a79894Swap Exact Token...74708482021-05-16 22:12:09158 days 1 hr ago0x69d9550727908a4511b4951c7dc7766f9167e9df PancakeSwap: Router v20 BNB0.001117
0x571f06676a1c22532a9d30782e6056a4a5c9d4a6826c6d0b256feedcbc414235Swap Exact ETH F...74708572021-05-16 22:12:36158 days 1 hr ago0x69d9550727908a4511b4951c7dc7766f9167e9df PancakeSwap: Router v20.15 BNB0.00097443
0x9ae2ea3795e5c145a8fda02d1b9ea8f2bcaf680913ae18e586c147f9d0bf7737Swap Exact ETH F...74708682021-05-16 22:13:09158 days 1 hr ago0xaad2056ddc984af58f83ef636652232c2e199f90 PancakeSwap: Router v20.005 BNB0.00097443
0x87db5296e926b5ead9d49d89670050516b4e5a27a5a8da889972557dc0dbd8c3Swap Exact ETH F...74708732021-05-16 22:13:24158 days 1 hr ago0xb7f9de4df60a37b97495c7e94d0efefec8760034 PancakeSwap: Router v20.048 BNB0.00097437
0xa30c79c8fb5346ece581afcb545e06c9a499114fecba17ab08768ac118e22738Swap Exact Token...74709112021-05-16 22:15:18158 days 1 hr ago0x43e37d267cf9c8ccc9b3a7c91bc23f4a356ed4e5 PancakeSwap: Router v20 BNB0.00140963
0xb834e9791f075888287a97a5f8c4605e1e8da284397c116ed341958cd802e731Swap Exact Token...74709232021-05-16 22:15:54158 days 1 hr ago0x43e37d267cf9c8ccc9b3a7c91bc23f4a356ed4e5 PancakeSwap: Router v20 BNB0.00133457
0x312c2f27d22b9f0e3d2a06b0db5357e3ea42c08bb89204829ded236538c8c788Swap Exact Token...74709352021-05-16 22:16:30158 days 1 hr ago0x2baa73bc3f80f9035bc88db3ff9458ab19962c1f PancakeSwap: Router v20 BNB0.00111706
0x5dd612e27ca44b0b71041d70eda5cd25a0de48fc5b9a1d7e105389d9329101bbSwap ETH For Exa...74709532021-05-16 22:17:24158 days 1 hr ago0xe29ff2ff7381dc763ef8b605efd5772d9323d799 PancakeSwap: Router v20.00518401883586 BNB0.00108938
0x98e1c2c829aad0bab970111e72af67875baae6caf73771204667301860d7e617Swap Exact ETH F...74709722021-05-16 22:18:21158 days 1 hr ago0x69d9550727908a4511b4951c7dc7766f9167e9df PancakeSwap: Router v20.1 BNB0.00097443
0xe801e6fedc9b156161c648c81700fe3b1876d4308c963a728bf42e43caf08b89Swap Exact ETH F...74709812021-05-16 22:18:48158 days 1 hr ago0xf00b838f6d9fff9212587af4e8aa4917371cb7f4 PancakeSwap: Router v20.01 BNB0.00104943
0x737648041b92f3c64cb408bcb103e3428f6463a86b4e1d2eeab901678c810e63Swap Exact ETH F...74709952021-05-16 22:19:38158 days 59 mins ago0x141ae9eaed45386e85fa4f8c88cb87714a7849b3 PancakeSwap: Router v20.3 BNB0.00104943
0x45b7ba966024a0ac3e3201c156daca19178b4b6dfd57867441b791a15a133ce8Swap Exact ETH F...74709962021-05-16 22:19:41158 days 59 mins ago0xf00b838f6d9fff9212587af4e8aa4917371cb7f4 PancakeSwap: Router v20.03 BNB0.00097443
0x12d1008fbc81250388cba275b028a441f7f39536487ca00a18a4490565cbf4b8Swap Exact ETH F...74710022021-05-16 22:20:01158 days 58 mins ago0x69d9550727908a4511b4951c7dc7766f9167e9df PancakeSwap: Router v20.05 BNB0.00097443
0xc89e3ed1c8829f10b6bf6bb0b2bf7a71e4d165939f41d4cf25428c4133905ae6Swap Exact Token...74710032021-05-16 22:20:04158 days 58 mins ago0xaaf974ade62e39b3f75f4ed26fc40286159c7c13 PancakeSwap: Router v20 BNB0.00111706
0x4b237fc79e8fb50e271aef09dac5d7612c767054a5f5cbb99d3702519abf7d39Swap Exact ETH F...74710092021-05-16 22:20:22158 days 58 mins ago0x0597d35c8cd991c2e9ee16e8b7e5fce95a8414eb PancakeSwap: Router v20.05 BNB0.00104943
0x515c286d2859b5836b57aaf4b496f82db5224a9872b350e45cb7d6cf58ef2f27Swap Exact ETH F...74710132021-05-16 22:20:37158 days 58 mins ago0x69d9550727908a4511b4951c7dc7766f9167e9df PancakeSwap: Router v20.1 BNB0.00097443
0x7fd26e82afe3f848c20b0689288adc0fbfcd477844c8e6b24e9f75e0bdc495c4Swap ETH For Exa...74710162021-05-16 22:20:49158 days 58 mins ago0x77e6e5e295a4c252833569edeeddb72fc733af81 PancakeSwap: Router v20.010649995267298 BNB0.00108944
0xe56193bf871d458af373cb85793093bd8f79ca7346dac5ea09d5ea018a15fc00Swap Exact ETH F...74710252021-05-16 22:21:22158 days 57 mins ago0x48ba1c3e634414975f63e42dc7b08c4b25cfebe5 PancakeSwap: Router v20.01 BNB0.00104943
0x6a7d7805d129986e5b7ee9ceeb5979d88de4cd147f36cb8eea4f8450fe10852dSwap ETH For Exa...74710352021-05-16 22:21:54158 days 56 mins ago0xe29ff2ff7381dc763ef8b605efd5772d9323d799 PancakeSwap: Router v20.00772961357325 BNB0.00101438
Show Records